Saint-Henri, Canada
Current Conditions -  °F | °C
As of 9:00 AM on Friday 19 Dec 2014 (Local Time) from CYQB Reporting Station
Few Clouds Few Clouds  
Wind Chill: 19°   Ceiling: Unl
Heat Index: 19°   Visibility: 20mi
Dew Point: 14°   Wind: 2mph
Humidity: 80%   Direction: 260°W
Pressure: 29.98"   Gusts: NA
Location:  46.68°N, 71.07°W
Report Text: CYQB 191400Z 26002KT 20SM FEW020 FEW078 M07/M10 A2998 RMK SC1AC2 SC TR SLP158
Loading
Personal Weather Stations






























Interactive Weather Map New forecast layout! Learn more

10-Day Weather Forecast

Advertisements
Track Severe Weather on mobile